Time;durP1;ratioP1;P1;durP2;ratioP2;P2;SDS_P1;SDS_P2;PMS_P1;PMS_P2;Temp;Humidity;BMP_temperature;BMP_pressure;BME280_temperature;BME280_humidity;BME280_pressure;Samples;Min_cycle;Max_cycle;Signal;HPM_P1;HPM_P2
2023/01/10 00:00:38;;;;;;;14.27;8.63;;;5.00;99.90;4.40;99259;;;;574649;248;24081;-76
2023/01/10 00:02:57;;;;;;;16.67;9.97;;;5.00;99.90;4.40;99281;;;;570182;248;24088;-77
2023/01/10 00:05:25;;;;;;;12.03;7.80;;;5.00;99.90;4.50;99279;;;;574053;248;24135;-77
2023/01/10 00:07:52;;;;;;;22.08;13.05;;;5.00;99.90;4.50;99291;;;;566570;249;35381;-78
2023/01/10 00:10:20;;;;;;;18.60;11.30;;;5.00;99.90;4.60;99298;;;;571545;249;24108;-78
2023/01/10 00:15:34;;;;;;;15.47;9.43;;;5.20;99.90;4.70;99296;;;;571967;249;24118;-77
2023/01/10 00:18:05;;;;;;;11.87;7.57;;;5.20;99.90;4.70;99289;;;;570953;246;24062;-78
2023/01/10 00:20:30;;;;;;;11.83;8.00;;;5.20;99.90;4.70;99295;;;;576336;249;24098;-79
2023/01/10 00:22:58;;;;;;;15.23;8.63;;;5.30;99.90;4.70;99289;;;;561468;252;24134;-78
2023/01/10 00:25:26;;;;;;;13.57;8.40;;;5.30;99.90;4.70;99293;;;;581371;247;24119;-78
2023/01/10 00:28:03;;;;;;;14.77;9.03;;;5.30;99.90;4.80;99310;;;;576979;249;24122;-77
2023/01/10 00:30:22;;;;;;;12.83;8.40;;;5.30;99.90;4.80;99304;;;;567819;249;24112;-78
2023/01/10 00:32:50;;;;;;;11.73;7.30;;;5.30;99.90;4.80;99298;;;;571397;249;24099;-77
2023/01/10 00:35:18;;;;;;;14.97;8.37;;;5.40;99.90;4.80;99309;;;;571754;249;24100;-76
2023/01/10 00:37:46;;;;;;;14.87;8.40;;;5.40;99.90;4.90;99318;;;;570725;249;24092;-78
2023/01/10 00:40:14;;;;;;;11.00;8.00;;;5.40;99.90;4.90;99324;;;;568043;249;24082;-77
2023/01/10 00:45:27;;;;;;;9.80;7.20;;;5.50;99.90;4.90;99326;;;;571245;249;24125;-77
2023/01/10 00:47:55;;;;;;;13.37;7.37;;;5.50;99.90;4.90;99343;;;;571410;249;24082;-77
2023/01/10 00:50:23;;;;;;;11.20;7.67;;;5.50;99.90;4.90;99346;;;;571234;249;24084;-76
2023/01/10 00:52:51;;;;;;;12.23;8.20;;;5.50;99.90;4.90;99354;;;;571473;249;24104;-77
2023/01/10 00:55:19;;;;;;;12.47;7.80;;;5.50;99.90;4.90;99365;;;;571341;249;24085;-78
2023/01/10 00:57:47;;;;;;;11.03;7.17;;;5.50;99.90;5.00;99373;;;;571468;249;24090;-75
2023/01/10 01:00:15;;;;;;;11.53;7.77;;;5.50;99.90;4.90;99382;;;;571359;249;24088;-76
2023/01/10 01:02:42;;;;;;;13.63;7.70;;;5.50;99.90;4.90;99392;;;;567586;249;24074;-78
2023/01/10 01:05:10;;;;;;;13.67;8.53;;;5.50;99.90;4.90;99391;;;;571395;249;24093;-78
2023/01/10 01:07:38;;;;;;;12.93;8.17;;;5.50;99.90;4.90;99391;;;;571349;249;24167;-77
2023/01/10 01:12:54;;;;;;;11.37;7.93;;;5.50;99.90;4.90;99398;;;;568473;249;24070;-78
2023/01/10 01:15:22;;;;;;;17.35;11.95;;;5.50;99.90;4.90;99407;;;;561124;249;35371;-76
2023/01/10 01:17:51;;;;;;;12.53;9.03;;;5.50;99.90;4.80;99405;;;;568649;249;24097;-77
2023/01/10 01:20:21;;;;;;;12.83;7.57;;;5.40;99.90;4.80;99412;;;;571965;249;24087;-78
2023/01/10 01:22:47;;;;;;;10.83;7.63;;;5.50;99.90;4.80;99422;;;;568541;249;24131;-77
2023/01/10 01:25:18;;;;;;;9.67;7.00;;;5.50;99.90;4.80;99417;;;;572152;249;25171;-78
2023/01/10 01:27:42;;;;;;;13.20;10.03;;;6.90;99.90;4.80;99421;;;;562736;249;35319;-77
2023/01/10 01:30:14;;;;;;;14.60;11.90;;;5.40;99.90;4.80;99412;;;;566528;249;35218;-77
2023/01/10 01:32:42;;;;;;;16.40;12.65;;;5.40;99.90;4.70;99410;;;;562915;249;35362;-77
2023/01/10 01:35:10;;;;;;;13.57;9.33;;;5.30;99.90;4.70;99417;;;;564553;248;24117;-78
2023/01/10 01:37:35;;;;;;;10.03;7.33;;;5.30;99.90;4.70;99414;;;;572241;247;24075;-79
2023/01/10 01:40:06;;;;;;;12.20;7.13;;;5.40;99.90;4.70;99420;;;;581729;247;25100;-78
2023/01/10 01:42:32;;;;;;;7.97;6.07;;;5.40;99.90;4.80;99420;;;;576569;249;24109;-79
2023/01/10 01:45:08;;;;;;;11.03;6.73;;;5.40;99.90;4.70;99426;;;;570653;247;24106;-77
2023/01/10 01:47:51;;;;;;;12.97;7.40;;;5.40;99.90;4.70;99427;;;;576667;249;24091;-78
2023/01/10 01:50:19;;;;;;;10.30;6.70;;;5.40;99.90;4.70;99433;;;;576480;249;24079;-77
2023/01/10 01:52:47;;;;;;;9.87;6.90;;;5.30;99.90;4.70;99432;;;;572015;247;24078;-78
2023/01/10 01:55:15;;;;;;;9.77;6.53;;;5.40;99.90;4.70;99439;;;;576300;249;24093;-77
2023/01/10 01:57:44;;;;;;;9.40;6.30;;;5.30;99.90;4.70;99446;;;;570764;249;24180;-76
2023/01/10 02:00:15;;;;;;;11.77;6.53;;;5.30;99.90;4.70;99450;;;;568143;249;24127;-77
2023/01/10 02:02:40;;;;;;;9.53;5.87;;;5.30;99.90;4.70;99450;;;;566921;249;24100;-78
2023/01/10 02:05:09;;;;;;;11.10;7.07;;;5.30;99.90;4.60;99457;;;;577909;247;24086;-78
2023/01/10 02:07:37;;;;;;;10.40;6.87;;;5.20;99.90;4.60;99454;;;;576221;249;24111;-77
2023/01/10 02:10:27;;;;;;;8.80;6.93;;;5.20;99.90;4.50;99446;;;;570785;249;24094;-77
2023/01/10 02:12:54;;;;;;;9.53;6.77;;;5.20;99.90;4.50;99453;;;;567853;249;24068;-76
2023/01/10 02:15:24;;;;;;;12.40;6.50;;;5.10;99.90;4.50;99444;;;;577806;247;24067;-77
2023/01/10 02:17:52;;;;;;;10.50;6.63;;;5.10;99.90;4.40;99447;;;;580840;241;24071;-76
2023/01/10 02:20:18;;;;;;;7.87;5.83;;;5.10;99.90;4.40;99448;;;;577718;247;24176;-76
2023/01/10 02:23:15;;;;;;;11.27;6.60;;;5.00;99.90;4.30;99459;;;;568980;249;24081;-77
2023/01/10 02:26:08;;;;;;;9.97;7.03;;;4.90;99.90;4.30;99466;;;;571977;248;24078;-78
2023/01/10 02:28:57;;;;;;;10.40;6.63;;;4.90;99.90;4.20;99464;;;;565129;248;24115;-78
2023/01/10 02:31:39;;;;;;;9.30;6.30;;;4.80;99.90;4.20;99464;;;;566251;247;24099;-78
2023/01/10 02:34:22;;;;;;;9.87;6.20;;;4.80;99.90;4.20;99475;;;;570959;247;24068;-79
2023/01/10 02:37:07;;;;;;;9.83;5.83;;;4.80;99.90;4.20;99479;;;;568516;249;25172;-78
2023/01/10 02:39:52;;;;;;;8.90;6.50;;;4.80;99.90;4.30;99475;;;;567585;249;24097;-76
2023/01/10 02:42:32;;;;;;;9.70;5.97;;;4.80;99.90;4.30;99480;;;;568824;249;24131;-76
2023/01/10 02:45:09;;;;;;;9.87;6.03;;;4.80;99.90;4.30;99475;;;;579181;245;24093;-77
2023/01/10 02:47:43;;;;;;;12.30;6.60;;;4.90;99.90;4.30;99479;;;;576633;249;24085;-76
2023/01/10 02:50:28;;;;;;;12.23;6.50;;;4.90;99.90;4.30;99478;;;;569015;249;24135;-77
2023/01/10 02:53:02;;;;;;;9.53;7.00;;;4.90;99.90;4.30;99475;;;;568361;249;24093;-75
2023/01/10 02:55:27;;;;;;;10.77;6.77;;;4.90;99.90;4.40;99475;;;;572101;247;24071;-76
2023/01/10 02:58:09;;;;;;;8.73;5.27;;;5.00;99.90;4.40;99474;;;;576429;249;24086;-76
2023/01/10 03:00:49;;;;;;;8.80;6.87;;;5.00;99.90;4.30;99479;;;;566337;247;24075;-77
2023/01/10 03:03:20;;;;;;;8.20;5.67;;;4.90;99.90;4.20;99478;;;;576707;249;24100;-77
2023/01/10 03:05:53;;;;;;;11.87;6.80;;;4.90;99.90;4.10;99482;;;;568461;249;24153;-76
2023/01/10 03:08:37;;;;;;;9.50;6.67;;;4.60;99.90;3.90;99491;;;;567671;249;24114;-77
2023/01/10 03:11:07;;;;;;;10.53;5.63;;;4.60;99.90;3.70;99486;;;;570345;247;24087;-77
2023/01/10 03:13:50;;;;;;;11.03;6.23;;;4.40;99.90;3.60;99491;;;;579154;247;24102;-77
2023/01/10 03:16:18;;;;;;;10.90;5.43;;;4.30;99.90;3.50;99498;;;;570174;247;24113;-77
2023/01/10 03:18:51;;;;;;;9.40;6.30;;;4.20;99.90;3.50;99504;;;;577193;245;24061;-75
2023/01/10 03:21:23;;;;;;;9.07;6.30;;;4.10;99.90;3.40;99503;;;;577686;248;24067;-76
2023/01/10 03:23:47;;;;;;;9.50;6.63;;;4.10;99.90;3.40;99508;;;;562083;252;24092;-76
2023/01/10 03:26:15;;;;;;;7.60;5.90;;;4.00;99.90;3.40;99510;;;;576813;248;24069;-76
2023/01/10 03:28:49;;;;;;;9.37;6.23;;;4.10;99.90;3.50;99516;;;;574927;249;24108;-77
2023/01/10 03:31:26;;;;;;;11.67;5.93;;;4.00;99.90;3.50;99522;;;;572830;246;24095;-77
2023/01/10 03:33:54;;;;;;;10.77;6.83;;;4.10;99.90;3.50;99525;;;;576227;249;24118;-77
2023/01/10 03:36:29;;;;;;;11.40;6.20;;;4.10;99.90;3.50;99530;;;;568584;249;24078;-77
2023/01/10 03:39:14;;;;;;;10.27;5.93;;;4.10;99.90;3.50;99525;;;;567826;249;24093;-77
2023/01/10 03:42:09;;;;;;;7.40;6.20;;;4.10;99.90;3.50;99530;;;;574439;244;24071;-77
2023/01/10 03:44:50;;;;;;;12.67;6.90;;;4.10;99.90;3.40;99540;;;;569159;252;24103;-76
2023/01/10 03:47:44;;;;;;;8.87;5.67;;;4.10;99.90;3.40;99549;;;;568092;249;24083;-77
2023/01/10 03:50:18;;;;;;;9.03;6.43;;;4.00;99.90;3.40;99554;;;;568031;248;24153;-76
2023/01/10 03:52:49;;;;;;;9.47;6.53;;;4.00;99.90;3.30;99564;;;;575977;249;24126;-78
2023/01/10 03:55:18;;;;;;;10.03;6.33;;;3.90;99.90;3.20;99560;;;;559696;250;24111;-79
2023/01/10 03:57:44;;;;;;;8.93;5.80;;;3.80;99.90;3.20;99562;;;;571927;247;24110;-75
2023/01/10 04:00:11;;;;;;;14.03;6.80;;;3.80;99.90;3.20;99568;;;;568306;249;24100;-77
2023/01/10 04:02:40;;;;;;;11.80;5.83;;;3.80;99.90;3.20;99574;;;;567607;249;24098;-77
2023/01/10 04:05:11;;;;;;;9.43;6.27;;;3.80;99.90;3.20;99577;;;;571142;249;24082;-77
2023/01/10 04:07:35;;;;;;;10.03;6.93;;;3.80;99.90;3.20;99587;;;;567468;249;24145;-77
2023/01/10 04:10:03;;;;;;;10.07;6.57;;;3.80;99.90;3.20;99585;;;;576285;249;24101;-76
2023/01/10 04:12:31;;;;;;;11.27;6.33;;;3.90;99.90;3.30;99605;;;;572290;245;24052;-77
2023/01/10 04:15:00;;;;;;;9.97;6.53;;;3.90;99.90;3.40;99610;;;;580941;245;24056;-77
2023/01/10 04:17:27;;;;;;;12.50;6.27;;;3.90;99.90;3.40;99616;;;;580980;247;24089;-77
2023/01/10 04:19:55;;;;;;;8.73;6.30;;;4.00;99.90;3.40;99622;;;;580975;241;24047;-76
2023/01/10 04:22:24;;;;;;;12.17;6.43;;;4.10;99.90;3.50;99614;;;;581489;241;24076;-76
2023/01/10 04:24:53;;;;;;;9.27;5.93;;;4.10;99.90;3.50;99627;;;;581462;247;24059;-77
2023/01/10 04:27:23;;;;;;;11.27;7.37;;;4.20;99.90;3.60;99621;;;;577118;249;24120;-76
2023/01/10 04:29:49;;;;;;;13.13;7.77;;;4.20;99.90;3.60;99634;;;;578745;247;24165;-76
2023/01/10 04:32:17;;;;;;;11.20;7.67;;;4.20;99.90;3.70;99630;;;;573612;247;24088;-76
2023/01/10 04:34:45;;;;;;;8.07;6.10;;;4.30;99.90;3.70;99639;;;;573129;247;25139;-77
2023/01/10 04:37:13;;;;;;;8.27;6.47;;;4.30;99.90;3.70;99644;;;;570749;249;24124;-77
2023/01/10 04:39:40;;;;;;;8.90;6.70;;;4.40;99.90;3.70;99650;;;;571387;249;24070;-78
2023/01/10 04:42:08;;;;;;;15.90;10.50;;;4.40;99.90;3.80;99658;;;;566809;249;35295;-78
2023/01/10 04:44:36;;;;;;;17.70;11.45;;;4.40;99.90;3.80;99662;;;;567748;249;46254;-78
2023/01/10 04:47:04;;;;;;;9.33;6.60;;;4.50;99.90;3.90;99671;;;;572252;249;24081;-78
2023/01/10 04:49:32;;;;;;;7.70;5.90;;;4.50;99.90;3.90;99664;;;;568516;249;24089;-78
2023/01/10 04:52:00;;;;;;;11.60;5.97;;;4.60;99.90;4.00;99670;;;;571519;249;24093;-78
2023/01/10 04:54:28;;;;;;;11.77;6.07;;;4.60;99.90;4.00;99674;;;;568647;249;24107;-78
2023/01/10 04:56:56;;;;;;;8.33;5.50;;;4.60;99.90;4.00;99681;;;;572175;249;24087;-79
2023/01/10 04:59:24;;;;;;;7.73;5.83;;;4.70;99.90;4.00;99691;;;;571500;249;24154;-77
2023/01/10 05:01:52;;;;;;;13.03;6.23;;;4.70;99.90;4.00;99692;;;;571875;249;24082;-78
2023/01/10 05:04:24;;;;;;;6.73;4.77;;;4.70;99.90;4.00;99691;;;;571760;249;24110;-78
2023/01/10 05:06:48;;;;;;;9.90;5.73;;;4.70;99.90;4.10;99710;;;;563742;249;24109;-77
2023/01/10 05:09:16;;;;;;;11.40;6.17;;;4.70;99.90;4.10;99702;;;;567904;249;24106;-76
2023/01/10 05:11:44;;;;;;;9.63;5.80;;;4.70;99.90;4.10;99709;;;;571068;249;24094;-76
2023/01/10 05:14:13;;;;;;;14.33;6.47;;;4.70;99.90;4.10;99717;;;;571209;249;24096;-78
2023/01/10 05:16:41;;;;;;;9.00;5.10;;;4.70;99.90;4.10;99710;;;;571995;249;24077;-75
2023/01/10 05:19:09;;;;;;;15.40;9.95;;;4.70;99.90;4.10;99719;;;;566778;249;35263;-76
2023/01/10 05:21:37;;;;;;;10.30;6.93;;;4.70;99.90;4.10;99728;;;;571709;249;24079;-76
2023/01/10 05:24:05;;;;;;;7.33;4.97;;;4.80;99.90;4.20;99720;;;;571237;249;24085;-76
2023/01/10 05:26:37;;;;;;;10.07;6.13;;;4.80;99.90;4.10;99722;;;;568062;249;24079;-76
2023/01/10 05:29:01;;;;;;;8.40;4.93;;;4.80;99.90;4.10;99720;;;;576482;247;24098;-77
2023/01/10 05:31:29;;;;;;;7.40;5.43;;;4.80;99.90;4.20;99728;;;;576350;248;24160;-76
2023/01/10 05:33:57;;;;;;;9.50;5.40;;;4.80;99.90;4.20;99731;;;;571397;249;24089;-77
2023/01/10 05:36:25;;;;;;;9.97;5.90;;;4.80;99.90;4.20;99738;;;;571491;249;24104;-78
2023/01/10 05:38:54;;;;;;;8.80;5.70;;;4.80;99.90;4.20;99740;;;;571416;249;24096;-79
2023/01/10 05:41:22;;;;;;;6.40;4.87;;;4.80;99.90;4.20;99749;;;;571265;249;24089;-78
2023/01/10 05:43:51;;;;;;;10.20;6.87;;;4.80;99.90;4.20;99744;;;;571485;249;24094;-77
2023/01/10 05:46:19;;;;;;;11.50;4.77;;;4.80;99.90;4.20;99753;;;;572281;247;24082;-77
2023/01/10 05:48:47;;;;;;;9.27;5.40;;;4.80;99.90;4.20;99764;;;;581209;240;24060;-77
2023/01/10 05:51:16;;;;;;;9.17;5.83;;;4.80;99.90;4.20;99762;;;;581076;247;24052;-77
2023/01/10 05:53:44;;;;;;;12.03;5.77;;;4.80;99.90;4.20;99766;;;;581395;240;24071;-76
2023/01/10 05:56:12;;;;;;;8.40;6.90;;;4.80;99.90;4.20;99751;;;;582475;240;24042;-77
2023/01/10 05:58:41;;;;;;;8.17;5.50;;;4.80;99.90;4.10;99759;;;;582017;247;24079;-75
2023/01/10 06:01:13;;;;;;;8.97;5.10;;;4.80;99.90;4.10;99771;;;;581968;245;24057;-76
2023/01/10 06:03:37;;;;;;;7.57;6.10;;;4.80;99.90;4.10;99776;;;;576703;249;24134;-76
2023/01/10 06:06:05;;;;;;;8.53;5.93;;;4.80;99.90;4.10;99782;;;;571488;249;24098;-77
2023/01/10 06:08:33;;;;;;;9.07;5.80;;;4.70;99.90;4.10;99797;;;;567713;249;24116;-77
2023/01/10 06:11:04;;;;;;;10.60;6.23;;;4.80;99.90;4.10;99795;;;;571305;249;24146;-76
2023/01/10 06:13:29;;;;;;;10.67;5.27;;;4.70;99.90;4.10;99794;;;;570818;249;24177;-78
2023/01/10 06:15:57;;;;;;;6.90;5.17;;;4.70;99.90;4.10;99807;;;;571963;249;24052;-76
2023/01/10 06:18:26;;;;;;;9.63;5.70;;;4.70;99.90;4.10;99823;;;;571559;249;24089;-76
2023/01/10 06:20:54;;;;;;;9.70;6.10;;;4.70;99.90;4.10;99817;;;;568266;249;24081;-76
2023/01/10 06:23:25;;;;;;;8.20;5.33;;;4.70;99.90;4.10;99822;;;;572010;249;24132;-78
2023/01/10 06:25:50;;;;;;;8.73;6.47;;;4.70;99.90;4.10;99826;;;;564302;249;24145;-75
2023/01/10 06:28:17;;;;;;;12.17;5.53;;;4.70;99.90;4.00;99833;;;;572000;249;24094;-77
2023/01/10 06:30:46;;;;;;;6.63;5.33;;;4.60;99.90;4.00;99832;;;;571835;249;24105;-77
2023/01/10 06:33:15;;;;;;;11.43;5.40;;;4.60;99.90;4.00;99841;;;;570866;248;24081;-78
2023/01/10 06:35:45;;;;;;;10.13;5.37;;;4.60;99.90;4.00;99842;;;;571504;249;24095;-77
2023/01/10 06:38:15;;;;;;;7.80;4.83;;;4.60;99.90;4.00;99857;;;;571262;249;24109;-76
2023/01/10 06:40:38;;;;;;;10.87;5.50;;;4.60;99.90;4.00;99850;;;;567138;249;24110;-78
2023/01/10 06:43:06;;;;;;;11.43;5.87;;;4.60;99.90;3.90;99854;;;;571428;249;24111;-77
2023/01/10 06:45:38;;;;;;;11.23;6.00;;;4.50;99.90;3.90;99851;;;;570869;249;24118;-78
2023/01/10 06:48:03;;;;;;;10.07;6.10;;;4.50;99.90;3.90;99853;;;;563870;248;24090;-76
2023/01/10 06:50:30;;;;;;;7.50;4.93;;;4.50;99.90;3.80;99853;;;;571200;249;24090;-77
2023/01/10 06:53:01;;;;;;;13.77;9.32;;;4.50;99.90;3.80;99860;;;;566281;249;35263;-77
2023/01/10 06:55:29;;;;;;;20.60;9.63;;;4.40;99.90;3.80;99857;;;;576778;249;24089;-76
2023/01/10 06:58:00;;;;;;;22.80;12.23;;;4.40;99.90;3.80;99869;;;;576133;249;24081;-78
2023/01/10 07:00:30;;;;;;;22.23;10.20;;;4.40;99.90;3.80;99870;;;;568192;249;24100;-77
2023/01/10 07:03:03;;;;;;;15.10;7.47;;;4.40;99.90;3.80;99880;;;;566923;249;24188;-79
2023/01/10 07:05:29;;;;;;;12.20;6.40;;;4.40;99.90;3.80;99873;;;;572260;247;24089;-76
2023/01/10 07:07:57;;;;;;;9.90;6.33;;;4.40;99.90;3.70;99882;;;;577954;248;24106;-76
2023/01/10 07:10:24;;;;;;;17.17;7.43;;;4.30;99.90;3.70;99894;;;;572337;249;24085;-77
2023/01/10 07:12:52;;;;;;;16.13;6.50;;;4.30;99.90;3.70;99897;;;;571639;249;24083;-78
2023/01/10 07:15:20;;;;;;;15.83;7.03;;;4.30;99.90;3.60;99904;;;;578429;247;24063;-77
2023/01/10 07:17:48;;;;;;;22.00;6.73;;;4.30;99.90;3.60;99914;;;;581976;240;24058;-78
2023/01/10 07:20:19;;;;;;;9.70;6.10;;;4.20;99.90;3.60;99923;;;;581371;247;25109;-77
2023/01/10 07:22:43;;;;;;;13.37;6.63;;;4.20;99.90;3.50;99917;;;;572252;247;24076;-77
2023/01/10 07:25:11;;;;;;;9.07;6.17;;;4.10;99.90;3.50;99909;;;;581693;247;24035;-78
2023/01/10 07:27:42;;;;;;;14.17;7.63;;;4.10;99.90;3.50;99911;;;;581162;247;24086;-79
2023/01/10 07:30:08;;;;;;;15.27;8.10;;;4.10;99.90;3.50;99917;;;;577241;248;24131;-78
2023/01/10 07:32:36;;;;;;;15.87;8.13;;;4.10;99.90;3.50;99918;;;;568312;249;24128;-78
2023/01/10 07:35:04;;;;;;;12.13;7.63;;;4.20;99.90;3.60;99914;;;;571170;249;24128;-77
2023/01/10 07:37:32;;;;;;;13.77;7.63;;;4.20;99.90;3.60;99914;;;;567943;249;24093;-78
2023/01/10 07:40:00;;;;;;;10.37;7.33;;;4.20;99.90;3.70;99928;;;;571171;249;24077;-78
2023/01/10 07:42:28;;;;;;;14.93;7.37;;;4.20;99.90;3.70;99925;;;;571412;249;24096;-78
2023/01/10 07:44:56;;;;;;;14.10;7.40;;;4.30;99.90;3.80;99916;;;;571219;249;24122;-77
2023/01/10 07:47:23;;;;;;;12.57;6.70;;;4.30;99.90;3.80;99926;;;;571422;249;24087;-77
2023/01/10 07:49:51;;;;;;;11.10;7.07;;;4.40;99.90;3.80;99926;;;;570856;249;24115;-77
2023/01/10 07:52:19;;;;;;;10.13;6.93;;;4.40;99.90;3.90;99931;;;;570973;249;24089;-78
2023/01/10 07:54:50;;;;;;;15.40;7.90;;;4.50;99.90;3.90;99942;;;;568130;249;24101;-78
2023/01/10 07:57:15;;;;;;;16.53;6.70;;;4.50;99.90;4.00;99944;;;;575875;249;24108;-77
2023/01/10 07:59:44;;;;;;;11.63;7.83;;;4.60;99.90;4.00;99950;;;;571341;249;24112;-77
2023/01/10 08:02:11;;;;;;;9.83;6.53;;;4.70;99.90;4.10;99968;;;;571103;249;24112;-76
2023/01/10 08:04:39;;;;;;;15.33;7.23;;;4.70;99.90;4.10;99965;;;;570820;247;24076;-77
2023/01/10 08:07:07;;;;;;;12.77;6.77;;;4.70;99.90;4.10;99970;;;;573495;247;24080;-76
2023/01/10 08:09:37;;;;;;;15.47;7.40;;;4.70;99.90;4.10;99973;;;;573672;247;24102;-78
2023/01/10 08:12:02;;;;;;;14.27;6.57;;;4.70;99.90;4.10;99978;;;;570704;249;24197;-77
2023/01/10 08:14:30;;;;;;;13.17;8.63;;;4.70;99.90;4.10;99987;;;;570772;249;24137;-77
2023/01/10 08:16:59;;;;;;;13.53;7.47;;;4.70;99.90;4.10;99985;;;;572275;249;24134;-77
2023/01/10 08:19:28;;;;;;;14.90;8.83;;;4.70;99.90;4.10;99987;;;;569764;249;24077;-76
2023/01/10 08:21:56;;;;;;;19.23;9.37;;;4.70;99.90;4.20;99997;;;;572681;249;24088;-78
2023/01/10 08:24:24;;;;;;;16.27;8.70;;;4.80;99.90;4.20;100012;;;;572511;249;24093;-77
2023/01/10 08:26:53;;;;;;;15.07;8.33;;;4.80;99.90;4.20;100014;;;;572400;249;24135;-77
2023/01/10 08:29:21;;;;;;;15.27;7.30;;;4.80;99.90;4.30;100023;;;;572235;249;24162;-76
2023/01/10 08:31:49;;;;;;;14.63;6.97;;;4.90;99.90;4.30;100017;;;;571838;249;24133;-76
2023/01/10 08:34:17;;;;;;;12.73;7.70;;;4.90;99.90;4.40;100019;;;;571895;249;24078;-76
2023/01/10 08:36:45;;;;;;;13.30;7.93;;;5.00;99.90;4.50;100022;;;;571171;249;24108;-76
2023/01/10 08:39:14;;;;;;;16.40;7.83;;;5.20;99.90;4.60;100023;;;;571662;249;24067;-77
2023/01/10 08:41:41;;;;;;;12.30;7.27;;;5.10;99.90;4.60;100022;;;;571430;249;24141;-78
2023/01/10 08:44:11;;;;;;;13.10;6.20;;;5.20;99.90;4.70;100027;;;;573903;248;24088;-78
2023/01/10 08:46:37;;;;;;;11.33;6.43;;;5.30;99.90;4.80;100034;;;;573478;248;25126;-76
2023/01/10 08:49:08;;;;;;;8.53;4.90;;;5.40;99.90;4.90;100040;;;;573964;248;24122;-76
2023/01/10 08:51:36;;;;;;;10.17;5.93;;;5.50;99.90;5.00;100042;;;;573620;248;24081;-78
2023/01/10 08:54:04;;;;;;;8.90;5.33;;;5.70;99.90;5.10;100050;;;;570143;248;24076;-77
2023/01/10 08:56:32;;;;;;;10.40;5.33;;;5.70;99.90;5.20;100061;;;;573615;248;24091;-76
2023/01/10 08:59:00;;;;;;;8.00;4.63;;;5.80;99.90;5.30;100065;;;;573237;248;24085;-76
2023/01/10 09:01:28;;;;;;;13.17;6.17;;;5.80;99.90;5.40;100062;;;;571320;249;24091;-76
2023/01/10 09:03:57;;;;;;;11.87;5.87;;;6.00;99.90;5.50;100076;;;;571422;249;24122;-77
2023/01/10 09:06:24;;;;;;;7.77;5.03;;;6.00;99.90;5.50;100083;;;;570858;249;24110;-76
2023/01/10 09:08:52;;;;;;;9.83;6.13;;;6.10;99.90;5.60;100080;;;;571488;249;25145;-77
2023/01/10 09:11:20;;;;;;;11.37;5.77;;;6.20;99.90;5.70;100086;;;;570928;249;24125;-76
2023/01/10 09:13:51;;;;;;;11.03;6.57;;;6.30;99.90;5.70;100084;;;;571269;249;24080;-77
2023/01/10 09:16:19;;;;;;;9.57;5.77;;;6.30;99.90;5.80;100093;;;;570859;249;24092;-76
2023/01/10 09:18:47;;;;;;;9.57;5.50;;;6.40;99.90;5.90;100096;;;;571678;249;24087;-77
2023/01/10 09:21:15;;;;;;;12.03;7.17;;;6.50;99.90;5.90;100104;;;;571684;249;24117;-77
2023/01/10 09:23:43;;;;;;;9.13;5.73;;;6.50;99.90;5.90;100104;;;;568023;249;24079;-77
2023/01/10 09:26:11;;;;;;;16.80;7.20;;;6.50;99.90;5.90;100114;;;;571192;249;24096;-76
2023/01/10 09:28:39;;;;;;;12.63;6.93;;;6.50;99.90;5.90;100110;;;;571716;249;24128;-76
2023/01/10 09:31:07;;;;;;;11.93;7.33;;;6.50;99.90;5.90;100115;;;;567332;249;24116;-78
2023/01/10 09:33:35;;;;;;;10.77;6.63;;;6.50;99.90;5.90;100121;;;;570471;251;24134;-73
2023/01/10 09:36:04;;;;;;;12.73;6.93;;;6.50;99.90;6.00;100121;;;;574156;249;24157;-76
2023/01/10 09:38:35;;;;;;;11.23;7.10;;;6.50;99.90;6.10;100118;;;;563404;249;24132;-82
2023/01/10 09:41:21;;;;;;;14.77;9.63;;;6.60;99.90;6.20;100118;;;;563273;249;35307;-76
2023/01/10 09:44:04;;;;;;;14.63;9.60;;;6.70;99.90;6.20;100127;;;;555725;248;35316;-77
2023/01/10 09:47:17;;;;;;;12.57;9.70;;;6.80;99.90;6.20;100128;;;;570527;244;35340;-77
2023/01/10 09:50:04;;;;;;;10.30;6.57;;;6.90;99.90;6.30;100127;;;;572643;244;24126;-76
2023/01/10 09:52:34;;;;;;;10.50;6.43;;;6.90;99.90;6.30;100138;;;;555021;254;24176;-75
2023/01/10 09:55:02;;;;;;;8.97;6.10;;;6.90;99.90;6.40;100134;;;;569604;249;24124;-76
2023/01/10 09:57:30;;;;;;;16.27;6.87;;;7.00;99.90;6.50;100135;;;;565739;249;24094;-77
2023/01/10 09:59:58;;;;;;;8.47;5.37;;;7.00;99.90;6.60;100133;;;;572220;247;24061;-78
2023/01/10 10:02:27;;;;;;;8.63;5.50;;;7.10;99.90;6.60;100136;;;;567070;249;24143;-76
2023/01/10 10:05:29;;;;;;;11.97;6.57;;;7.20;99.90;6.60;100134;;;;570503;252;24132;-77
2023/01/10 10:08:01;;;;;;;10.80;7.37;;;7.20;99.90;6.70;100136;;;;569153;251;24142;-77
2023/01/10 10:10:30;;;;;;;16.63;7.93;;;7.30;99.90;6.80;100130;;;;567962;249;24098;-79
2023/01/10 10:13:04;;;;;;;13.43;8.03;;;7.40;99.90;6.90;100136;;;;566178;249;24098;-76
2023/01/10 10:15:36;;;;;;;13.83;7.53;;;7.40;99.90;7.00;100141;;;;577944;247;24063;-76
2023/01/10 10:18:15;;;;;;;16.17;8.87;;;7.50;99.90;7.00;100140;;;;573934;249;24160;-76
2023/01/10 10:20:57;;;;;;;13.80;8.27;;;7.60;99.90;7.00;100140;;;;562208;247;24161;-76
2023/01/10 10:23:52;;;;;;;14.95;8.88;;;7.60;99.90;7.00;100139;;;;566697;247;35321;-78
2023/01/10 10:26:50;;;;;;;11.40;7.20;;;7.60;99.90;7.10;100132;;;;578712;247;24163;-77
2023/01/10 10:29:42;;;;;;;13.83;6.20;;;7.70;99.90;7.10;100147;;;;572141;247;24089;-78
2023/01/10 10:32:27;;;;;;;8.83;5.20;;;7.70;99.90;7.10;100156;;;;572741;247;24100;-78
2023/01/10 10:35:13;;;;;;;10.53;5.90;;;7.70;99.90;7.20;100150;;;;574844;247;24092;-80
2023/01/10 10:37:51;;;;;;;10.70;5.80;;;7.80;99.90;7.20;100155;;;;569015;247;24130;-77
2023/01/10 10:40:25;;;;;;;6.73;5.37;;;7.80;99.90;7.30;100158;;;;572713;247;24089;-79
2023/01/10 10:42:53;;;;;;;8.57;5.63;;;7.80;99.90;7.40;100156;;;;568793;252;24109;-79
2023/01/10 10:45:39;;;;;;;8.83;5.93;;;8.00;99.90;7.50;100160;;;;565455;246;24122;-79
2023/01/10 10:48:16;;;;;;;9.33;5.90;;;8.00;99.90;7.60;100158;;;;577628;244;24118;-76
2023/01/10 10:50:50;;;;;;;12.03;6.40;;;8.10;99.90;7.70;100158;;;;562739;252;24095;-76
2023/01/10 10:53:18;;;;;;;9.87;8.33;;;8.30;99.90;7.90;100161;;;;573738;246;24114;-76
2023/01/10 10:55:46;;;;;;;10.87;6.90;;;8.40;99.90;8.00;100153;;;;565718;249;24096;-77
2023/01/10 10:58:14;;;;;;;8.80;6.60;;;8.50;99.90;8.10;100156;;;;565294;249;24115;-78
2023/01/10 11:00:41;;;;;;;9.97;6.07;;;8.70;99.90;8.20;100159;;;;572024;247;24070;-79
2023/01/10 11:03:25;;;;;;;10.70;8.40;;;8.80;99.90;8.20;100156;;;;556297;254;35516;-79
2023/01/10 11:05:53;;;;;;;8.70;6.20;;;8.80;99.90;8.30;100164;;;;562630;252;25181;-77
2023/01/10 11:08:21;;;;;;;11.37;6.53;;;8.90;99.90;8.30;100162;;;;557844;254;24146;-78
2023/01/10 11:10:54;;;;;;;12.80;7.13;;;8.90;99.90;8.20;100168;;;;570091;252;24106;-77
2023/01/10 11:13:34;;;;;;;13.83;7.53;;;8.90;99.90;8.20;100172;;;;561898;252;24103;-76
2023/01/10 11:16:09;;;;;;;12.67;6.77;;;8.80;99.90;8.20;100169;;;;553702;259;24149;-77
2023/01/10 11:18:37;;;;;;;12.10;8.27;;;8.80;99.90;8.20;100170;;;;545862;256;35542;-76
2023/01/10 11:21:13;;;;;;;10.13;6.10;;;8.70;99.90;8.20;100174;;;;551927;254;24146;-77
2023/01/10 11:23:50;;;;;;;7.87;6.43;;;8.80;99.90;8.20;100165;;;;558193;254;24120;-76
2023/01/10 11:26:38;;;;;;;11.03;6.33;;;8.80;99.90;8.30;100173;;;;557302;254;24123;-78
2023/01/10 11:29:16;;;;;;;9.67;5.67;;;8.80;99.90;8.30;100175;;;;549536;257;24156;-77
2023/01/10 11:31:47;;;;;;;8.07;5.37;;;8.80;99.90;8.30;100177;;;;561855;252;24193;-77
2023/01/10 11:34:20;;;;;;;10.33;6.03;;;8.80;99.90;8.30;100182;;;;566325;253;24135;-79
2023/01/10 11:36:57;;;;;;;8.77;5.67;;;8.90;99.90;8.30;100183;;;;549614;257;24149;-76
2023/01/10 11:39:25;;;;;;;12.07;5.73;;;8.90;99.90;8.40;100184;;;;573384;251;24164;-76
2023/01/10 11:41:54;;;;;;;11.10;6.87;;;8.90;99.90;8.40;100191;;;;551715;259;24135;-77
2023/01/10 11:44:27;;;;;;;8.30;6.90;;;8.90;99.90;8.40;100192;;;;555388;257;24152;-77
2023/01/10 11:47:03;;;;;;;7.63;6.07;;;9.00;99.90;8.40;100193;;;;564800;253;24132;-77
2023/01/10 11:49:34;;;;;;;12.10;9.38;;;9.00;99.90;8.40;100191;;;;569059;250;35516;-79